Terminal Aerodrome Forecast
Issued by NWS

Current Version | Previous Version | Text Only | Print | Product List | Glossary On
Versions: 1 2 3 4 5 6 7 8 9 10 11 12 13 14 15 16 17 18 19 20 21 22 23 24 25 26 27 28 29 30 31 32 33 34 35 36 37 38 39 40 41 42 43 44 45 46 47 48 49 50
446
FTUS41 KCTP 282350
TAFJST
TAF
KJST 282350Z 2900/2924 32008KT 5SM -DZ OVC003
     FM290300 32008KT 6SM BR OVC007
     FM291500 35010KT P6SM OVC015
     FM291700 34010KT P6SM BKN025
     FM291900 34009KT P6SM FEW035=

USA.gov is the U.S. government's official web portal to all federal, state and local government web resources and services.